Albion, Illinois
Current Conditions -  °F | °C
As of 6:15 AM on Friday 31 Oct 2014 (Local Time) from KFWC Reporting Station
Broken Clouds Broken Clouds  
Wind Chill: 44°   Ceiling: 9000
Heat Index: 46°   Visibility: 7mi
Dew Point: 45°   Wind: 5mph
Humidity: 94%   Direction: 340°NNW
Pressure: 30.06"   Gusts: NA
Location:  38.38°N, 88.06°W
Report Text: KFWC 311115Z AUTO 34004KT 7SM BKN090 08/07 A3006 RMK AO1 T00800071
Loading
Personal Weather Stations






























Interactive Weather Map
Tropical Storm Tracking
New forecast layout! Learn more

10-Day Weather Forecast

Advertisements
Track Severe Weather on mobile